METAR Data
IDs: Format: Raw Decoded Include TAF

Data at: 0736 UTC 03 Aug 2021

KMYV 030653Z AUTO 14005KT 10SM CLR 22/10 A2995 RMK AO2 SLP146 T02170100
KMYV 030553Z AUTO 00000KT 10SM CLR 22/06 A2995 RMK AO2 SLP144 T02170061 10356 20217 53001
KMYV 030453Z AUTO 00000KT 10SM CLR 26/06 A2994 RMK AO2 SLP143 T02560056
KMYV 030353Z AUTO 00000KT 10SM CLR 29/02 A2994 RMK AO2 SLP141 T02890022
KMYV 030253Z AUTO 16004KT 10SM CLR 32/01 A2994 RMK AO2 SLP143 T03170011 55007
KMYV 030153Z AUTO 14005KT 10SM CLR 33/06 A2994 RMK AO2 SLP142 T03330056
KMYV 030053Z AUTO 15005KT 10SM CLR 36/07 A2995 RMK AO2 SLP146 T03560067
KMYV 022353Z AUTO 23006KT 10SM CLR 36/07 A2997 RMK AO2 SLP150 T03560067 10356 20250 56023
KMYV 022253Z AUTO 00000KT 10SM CLR 34/08 A2999 RMK AO2 SLP157 T03390083
KMYV 022153Z AUTO 00000KT 10SM CLR 34/07 A3001 RMK AO2 SLP165 T03440072
KMYV 022053Z AUTO VRB03KT 10SM CLR 33/07 A3004 RMK AO2 SLP174 T03280067 58014
KMYV 021953Z AUTO VRB05KT 10SM CLR 31/08 A3005 RMK AO2 SLP179 T03060078
KMYV 021853Z AUTO 20004KT 10SM CLR 28/08 A3007 RMK AO2 SLP185 T02780083
KMYV 021753Z AUTO VRB04KT 10SM CLR 25/09 A3008 RMK AO2 SLP188 T02500094 10250 20167 50001
KMYV 021653Z AUTO 17008KT 10SM CLR 23/09 A3008 RMK AO2 SLP190 T02280089
KMYV 021553Z AUTO 16010KT 10SM CLR 21/09 A3008 RMK AO2 SLP188 T02060094
KMYV 021453Z AUTO 15007KT 10SM CLR 19/10 A3007 RMK AO2 SLP187 T01890100 53016
KMYV 021353Z AUTO 14008KT 10SM CLR 17/10 A3006 RMK AO2 SLP181 T01720100
KMYV 021253Z AUTO 14007KT 10SM CLR 17/10 A3004 RMK AO2 SLP175 T01720100
KMYV 021153Z AUTO 14006KT 10SM CLR 18/09 A3003 RMK AO2 SLP171 T01780094 10233 20178 53009
KMYV 021053Z AUTO 14009KT 10SM CLR 18/09 A3001 RMK AO2 SLP166 T01830089
KMYV 020953Z AUTO 14011KT 10SM CLR 19/09 A3000 RMK AO2 SLP163 T01940089
KMYV 020853Z AUTO 15011KT 10SM CLR 19/10 A3000 RMK AO2 SLP161 T01940100 53006
KMYV 020753Z AUTO 15010KT 10SM CLR 21/11 A2999 RMK AO2 SLP159 T02110106 403780183
KMYV 020653Z AUTO 15011KT 10SM CLR 22/11 A2998 RMK AO2 SLP156 T02220106
KMYV 020553Z AUTO 16009KT 10SM CLR 23/11 A2998 RMK AO2 SLP155 T02330111 10378 20233 53023
KMYV 020453Z AUTO 16012KT 10SM CLR 26/12 A2996 RMK AO2 SLP147 T02610117
KMYV 020353Z AUTO 15011KT 10SM CLR 29/12 A2992 RMK AO2 SLP136 T02890117
KMYV 020253Z AUTO 17009KT 10SM CLR 33/08 A2991 RMK AO2 SLP132 T03280083 53000
KMYV 020153Z AUTO 16009KT 10SM CLR 36/13 A2990 RMK AO2 SLP127 T03560133
KMYV 020053Z AUTO 21006KT 10SM CLR 37/12 A2990 RMK AO2 SLP129 T03720122
KMYV 012353Z AUTO 20006KT 10SM CLR 37/12 A2991 RMK AO2 SLP132 T03720117 10378 20283 56019
KMYV 012253Z AUTO 19006KT 10SM CLR 37/11 A2993 RMK AO2 SLP137 T03670111
KMYV 012153Z AUTO VRB04KT 10SM CLR 36/11 A2995 RMK AO2 SLP144 T03610111
KMYV 012053Z AUTO 00000KT 10SM CLR 34/12 A2997 RMK AO2 SLP151 T03440117 58014
KMYV 011953Z AUTO 00000KT 10SM CLR 31/12 A2999 RMK AO2 SLP158 T03110122